createdAt,value
2023-05-17T00:00:47.327Z,98732.00
2023-05-17T00:03:16.740Z,98734.00
2023-05-17T00:05:46.331Z,98739.00
2023-05-17T00:08:15.697Z,98756.00
2023-05-17T00:10:44.999Z,98754.00
2023-05-17T00:13:14.345Z,98757.00
2023-05-17T00:15:43.740Z,98762.00
2023-05-17T00:18:14.950Z,98770.00
2023-05-17T00:20:44.457Z,98772.00
2023-05-17T00:23:13.792Z,98776.00
2023-05-17T00:25:43.294Z,98782.00
2023-05-17T00:28:12.714Z,98781.00
2023-05-17T00:30:42.109Z,98798.00
2023-05-17T00:33:11.607Z,98803.00
2023-05-17T00:35:41.945Z,98811.00
2023-05-17T00:38:11.599Z,98803.00
2023-05-17T00:40:40.978Z,98813.00
2023-05-17T00:43:10.425Z,98809.00
2023-05-17T00:45:39.824Z,98817.00
2023-05-17T00:48:09.299Z,98817.00
2023-05-17T00:50:39.100Z,98818.00
2023-05-17T00:53:09.068Z,98826.00
2023-05-17T00:55:38.685Z,98823.00
2023-05-17T00:58:08.022Z,98821.00
2023-05-17T01:00:37.600Z,98836.00
2023-05-17T01:03:07.407Z,98832.00
2023-05-17T01:05:37.421Z,98838.00
2023-05-17T01:08:06.992Z,98842.00
2023-05-17T01:11:06.512Z,98844.00
2023-05-17T01:14:03.804Z,98847.00
2023-05-17T01:16:53.419Z,98856.00
2023-05-17T01:19:47.406Z,98859.00
2023-05-17T01:22:45.547Z,98868.00
2023-05-17T01:25:33.161Z,98873.00
2023-05-17T01:28:06.551Z,98873.00
2023-05-17T01:30:37.970Z,98882.00
2023-05-17T01:33:10.987Z,98878.00
2023-05-17T01:35:41.136Z,98884.00
2023-05-17T01:38:10.764Z,98892.00
2023-05-17T01:40:57.069Z,98887.00
2023-05-17T01:44:14.070Z,98884.00
2023-05-17T01:46:45.184Z,98891.00
2023-05-17T01:49:26.084Z,98896.00
2023-05-17T01:52:29.697Z,98896.00
2023-05-17T01:55:44.191Z,98895.00
2023-05-17T01:58:14.981Z,98894.00
2023-05-17T02:00:48.937Z,98904.00
2023-05-17T02:03:22.345Z,98898.00
2023-05-17T02:05:51.960Z,98898.00
2023-05-17T02:08:23.031Z,98901.00
2023-05-17T02:10:52.437Z,98898.00
2023-05-17T02:13:23.286Z,98901.00
2023-05-17T02:15:52.945Z,98908.00
2023-05-17T02:18:28.896Z,98897.00
2023-05-17T02:20:58.338Z,98908.00
2023-05-17T02:23:27.792Z,98901.00
2023-05-17T02:25:58.356Z,98902.00
2023-05-17T02:28:29.294Z,98896.00
2023-05-17T02:31:00.887Z,98900.00
2023-05-17T02:34:14.349Z,98901.00
2023-05-17T02:36:49.607Z,98895.00
2023-05-17T02:39:25.766Z,98894.00
2023-05-17T02:41:58.693Z,98894.00
2023-05-17T02:44:28.032Z,98896.00
2023-05-17T02:47:00.256Z,98893.00
2023-05-17T02:49:29.843Z,98888.00
2023-05-17T02:51:59.335Z,98897.00
2023-05-17T02:54:28.793Z,98892.00
2023-05-17T02:57:01.428Z,98887.00
2023-05-17T02:59:30.762Z,98886.00
2023-05-17T03:02:00.200Z,98885.00
2023-05-17T03:04:29.999Z,98877.00
2023-05-17T03:06:59.349Z,98873.00
2023-05-17T03:09:30.913Z,98869.00
2023-05-17T03:12:00.209Z,98870.00
2023-05-17T03:14:29.538Z,98873.00
2023-05-17T03:16:58.729Z,98869.00
2023-05-17T03:19:28.574Z,98867.00
2023-05-17T03:21:57.877Z,98858.00
2023-05-17T03:24:27.250Z,98853.00
2023-05-17T03:26:56.497Z,98843.00
2023-05-17T03:29:25.874Z,98854.00
2023-05-17T03:31:55.630Z,98842.00
2023-05-17T03:34:25.285Z,98833.00
2023-05-17T03:36:54.430Z,98843.00
2023-05-17T03:39:23.708Z,98834.00
2023-05-17T03:41:53.534Z,98838.00
2023-05-17T03:44:22.765Z,98840.00
2023-05-17T03:46:52.237Z,98843.00
2023-05-17T03:49:21.979Z,98816.00
2023-05-17T03:51:51.374Z,98812.00
2023-05-17T03:54:20.599Z,98816.00
2023-05-17T03:56:51.278Z,98803.00
2023-05-17T03:59:20.523Z,98796.00
2023-05-17T04:01:49.807Z,98801.00
2023-05-17T04:04:19.049Z,98795.00
2023-05-17T04:06:48.656Z,98796.00
2023-05-17T04:09:18.151Z,98808.00
2023-05-17T04:11:47.572Z,98806.00
2023-05-17T04:14:19.132Z,98809.00
2023-05-17T04:16:48.746Z,98802.00
2023-05-17T04:19:18.594Z,98794.00
2023-05-17T04:21:48.299Z,98793.00
2023-05-17T04:24:18.160Z,98804.00
2023-05-17T04:26:47.413Z,98798.00
2023-05-17T04:29:16.656Z,98787.00
2023-05-17T04:31:48.035Z,98781.00
2023-05-17T04:34:18.427Z,98792.00
2023-05-17T04:36:47.677Z,98785.00
2023-05-17T04:39:17.077Z,98778.00
2023-05-17T04:41:46.467Z,98767.00
2023-05-17T04:44:15.811Z,98775.00
2023-05-17T04:46:46.903Z,98763.00
2023-05-17T04:49:16.281Z,98762.00
2023-05-17T04:51:45.586Z,98755.00
2023-05-17T04:54:14.972Z,98753.00
2023-05-17T04:56:44.481Z,98743.00
2023-05-17T04:59:13.758Z,98741.00
2023-05-17T05:01:43.228Z,98738.00
2023-05-17T05:04:12.826Z,98731.00
2023-05-17T05:06:42.630Z,98737.00
2023-05-17T05:09:12.032Z,98724.00
2023-05-17T05:11:41.337Z,98720.00
2023-05-17T05:14:10.718Z,98727.00
2023-05-17T05:16:40.043Z,98714.00
2023-05-17T05:19:11.251Z,98718.00
2023-05-17T05:21:40.655Z,98703.00
2023-05-17T05:24:10.298Z,98703.00
2023-05-17T05:26:39.655Z,98707.00
2023-05-17T05:29:08.922Z,98684.00
2023-05-17T05:31:38.411Z,98684.00
2023-05-17T05:34:08.539Z,98686.00
2023-05-17T05:36:38.127Z,98689.00
2023-05-17T05:39:09.167Z,98682.00
2023-05-17T05:41:38.515Z,98682.00
2023-05-17T05:44:07.990Z,98676.00
2023-05-17T05:46:37.334Z,98661.00
2023-05-17T05:49:06.672Z,98654.00
2023-05-17T05:51:36.304Z,98651.00
2023-05-17T05:54:05.702Z,98642.00
2023-05-17T05:56:34.947Z,98643.00
2023-05-17T05:59:04.671Z,98638.00
2023-05-17T06:01:35.101Z,98628.00
2023-05-17T06:04:04.448Z,98627.00
2023-05-17T06:06:42.267Z,98632.00
2023-05-17T06:09:13.321Z,98635.00
2023-05-17T06:11:42.519Z,98626.00
2023-05-17T06:14:12.226Z,98626.00
2023-05-17T06:16:41.470Z,98620.00
2023-05-17T06:19:12.703Z,98599.00
2023-05-17T06:21:42.272Z,98605.00
2023-05-17T06:24:11.680Z,98591.00
2023-05-17T06:26:41.993Z,98594.00
2023-05-17T06:29:11.852Z,98578.00
2023-05-17T06:31:41.094Z,98579.00
2023-05-17T06:34:10.654Z,98573.00
2023-05-17T06:36:40.729Z,98571.00
2023-05-17T06:39:10.098Z,98573.00
2023-05-17T06:41:39.496Z,98552.00
2023-05-17T06:44:09.861Z,98552.00
2023-05-17T06:46:39.103Z,98545.00
2023-05-17T06:49:08.471Z,98553.00
2023-05-17T06:51:37.856Z,98552.00
2023-05-17T06:54:07.114Z,98545.00
2023-05-17T06:56:36.617Z,98527.00
2023-05-17T06:59:05.898Z,98520.00
2023-05-17T07:01:35.711Z,98519.00
2023-05-17T07:04:05.026Z,98534.00
2023-05-17T07:06:34.325Z,98524.00
2023-05-17T07:09:03.631Z,98509.00
2023-05-17T07:11:33.072Z,98512.00
2023-05-17T07:14:02.379Z,98510.00
2023-05-17T07:16:31.735Z,98507.00
2023-05-17T07:19:00.999Z,98505.00
2023-05-17T07:21:30.802Z,98499.00
2023-05-17T07:24:00.483Z,98505.00
2023-05-17T07:26:29.709Z,98497.00
2023-05-17T07:28:59.098Z,98501.00
2023-05-17T07:31:28.304Z,98491.00
2023-05-17T07:33:58.410Z,98471.00
2023-05-17T07:36:31.556Z,98467.00
2023-05-17T07:39:00.993Z,98471.00
2023-05-17T07:41:30.335Z,98459.00
2023-05-17T07:43:59.739Z,98472.00
2023-05-17T07:46:30.780Z,98467.00
2023-05-17T07:49:00.206Z,98456.00
2023-05-17T07:51:29.650Z,98450.00
2023-05-17T07:53:58.997Z,98452.00
2023-05-17T07:56:28.481Z,98445.00
2023-05-17T07:58:58.790Z,98457.00
2023-05-17T08:01:28.733Z,98452.00
2023-05-17T08:03:58.221Z,98448.00
2023-05-17T08:06:27.601Z,98439.00
2023-05-17T08:08:57.029Z,98442.00
2023-05-17T08:11:26.678Z,98434.00
2023-05-17T08:13:56.006Z,98442.00
2023-05-17T08:16:25.303Z,98429.00
2023-05-17T08:18:54.940Z,98430.00
2023-05-17T08:21:24.438Z,98425.00
2023-05-17T08:23:54.262Z,98422.00
2023-05-17T08:26:23.578Z,98413.00
2023-05-17T08:28:52.877Z,98415.00
2023-05-17T08:31:22.228Z,98404.00
2023-05-17T08:33:52.921Z,98400.00
2023-05-17T08:36:22.627Z,98393.00
2023-05-17T08:38:53.441Z,98393.00
2023-05-17T08:41:23.140Z,98393.00
2023-05-17T08:43:53.104Z,98386.00
2023-05-17T08:46:23.531Z,98390.00
2023-05-17T08:49:00.743Z,98385.00
2023-05-17T08:51:30.685Z,98376.00
2023-05-17T08:54:00.932Z,98372.00
2023-05-17T08:56:33.250Z,98368.00
2023-05-17T08:59:04.113Z,98374.00
2023-05-17T09:01:34.165Z,98376.00
2023-05-17T09:04:04.116Z,98353.00
2023-05-17T09:06:35.626Z,98353.00
2023-05-17T09:09:08.412Z,98365.00
2023-05-17T09:11:37.850Z,98362.00
2023-05-17T09:14:09.412Z,98365.00
2023-05-17T09:16:39.797Z,98356.00
2023-05-17T09:19:10.647Z,98360.00
2023-05-17T09:21:40.208Z,98351.00
2023-05-17T09:24:09.921Z,98358.00
2023-05-17T09:26:47.649Z,98368.00
2023-05-17T09:29:18.478Z,98365.00
2023-05-17T09:31:47.972Z,98367.00
2023-05-17T09:34:24.646Z,98363.00
2023-05-17T09:36:55.565Z,98371.00
2023-05-17T09:39:28.002Z,98371.00
2023-05-17T09:41:59.338Z,98367.00
2023-05-17T09:44:28.819Z,98361.00
2023-05-17T09:47:00.989Z,98366.00
2023-05-17T09:49:30.254Z,98359.00
2023-05-17T09:51:59.523Z,98362.00
2023-05-17T09:54:42.351Z,98358.00
2023-05-17T09:57:12.052Z,98367.00
2023-05-17T09:59:42.191Z,98361.00
2023-05-17T10:02:22.464Z,98361.00
2023-05-17T10:04:54.835Z,98362.00
2023-05-17T10:07:27.113Z,98371.00
2023-05-17T10:09:58.448Z,98368.00
2023-05-17T10:12:34.759Z,98370.00
2023-05-17T10:15:05.973Z,98375.00
2023-05-17T10:17:36.752Z,98380.00
2023-05-17T10:20:09.670Z,98374.00
2023-05-17T10:22:41.984Z,98378.00
2023-05-17T10:25:12.201Z,98383.00
2023-05-17T10:27:42.866Z,98384.00
2023-05-17T10:30:15.554Z,98383.00
2023-05-17T10:32:47.766Z,98391.00
2023-05-17T10:35:17.713Z,98386.00
2023-05-17T10:37:46.958Z,98385.00
2023-05-17T10:40:18.544Z,98393.00
2023-05-17T10:42:55.058Z,98393.00
2023-05-17T10:45:29.295Z,98390.00
2023-05-17T10:48:00.921Z,98396.00
2023-05-17T10:50:31.157Z,98405.00
2023-05-17T10:53:01.495Z,98400.00
2023-05-17T10:55:44.108Z,98405.00
2023-05-17T10:58:20.819Z,98407.00
2023-05-17T11:00:55.754Z,98407.00
2023-05-17T11:03:30.200Z,98416.00
2023-05-17T11:06:25.669Z,98415.00
2023-05-17T11:09:19.882Z,98409.00
2023-05-17T11:12:29.096Z,98410.00
2023-05-17T11:15:00.361Z,98417.00
2023-05-17T11:17:38.144Z,98411.00
2023-05-17T11:20:17.594Z,98418.00
2023-05-17T11:22:57.180Z,98424.00
2023-05-17T11:25:30.845Z,98422.00
2023-05-17T11:28:01.257Z,98429.00
2023-05-17T11:30:34.957Z,98430.00
2023-05-17T11:33:17.343Z,98430.00
2023-05-17T11:35:58.012Z,98436.00
2023-05-17T11:38:33.869Z,98442.00
2023-05-17T11:41:26.960Z,98443.00
2023-05-17T11:43:57.014Z,98445.00
2023-05-17T11:46:27.047Z,98443.00
2023-05-17T11:48:57.309Z,98447.00
2023-05-17T11:51:27.504Z,98456.00
2023-05-17T11:53:57.639Z,98462.00
2023-05-17T11:56:41.943Z,98469.00
2023-05-17T11:59:12.591Z,98469.00
2023-05-17T12:01:47.597Z,98466.00
2023-05-17T12:04:26.700Z,98477.00
2023-05-17T12:06:58.862Z,98471.00
2023-05-17T12:09:28.666Z,98475.00
2023-05-17T12:11:59.107Z,98490.00
2023-05-17T12:14:28.717Z,98490.00
2023-05-17T12:17:03.546Z,98495.00
2023-05-17T12:19:33.947Z,98497.00
2023-05-17T12:22:13.694Z,98499.00
2023-05-17T12:24:44.999Z,98500.00
2023-05-17T12:27:14.414Z,98505.00
2023-05-17T12:29:45.105Z,98505.00
2023-05-17T12:32:14.710Z,98509.00
2023-05-17T12:34:45.345Z,98508.00
2023-05-17T12:37:20.898Z,98509.00
2023-05-17T12:39:56.285Z,98520.00
2023-05-17T12:42:29.648Z,98518.00
2023-05-17T12:45:04.296Z,98534.00
2023-05-17T12:47:37.838Z,98530.00
2023-05-17T12:50:26.714Z,98549.00
2023-05-17T12:52:59.314Z,98556.00
2023-05-17T12:55:39.395Z,98553.00
2023-05-17T12:58:11.101Z,98552.00
2023-05-17T13:00:45.070Z,98553.00
2023-05-17T13:03:15.290Z,98561.00
2023-05-17T13:05:48.097Z,98563.00
2023-05-17T13:08:29.789Z,98566.00
2023-05-17T13:11:22.837Z,98576.00
2023-05-17T13:13:55.321Z,98580.00
2023-05-17T13:16:32.190Z,98580.00
2023-05-17T13:19:07.474Z,98578.00
2023-05-17T13:21:42.849Z,98577.00
2023-05-17T13:24:17.453Z,98583.00
2023-05-17T13:26:51.656Z,98583.00
2023-05-17T13:29:35.281Z,98586.00
2023-05-17T13:32:18.670Z,98592.00
2023-05-17T13:34:51.359Z,98587.00
2023-05-17T13:37:27.049Z,98594.00
2023-05-17T13:39:58.019Z,98595.00
2023-05-17T13:42:29.972Z,98594.00
2023-05-17T13:45:04.050Z,98601.00
2023-05-17T13:47:39.508Z,98597.00
2023-05-17T13:50:11.003Z,98600.00
2023-05-17T13:52:40.382Z,98599.00
2023-05-17T13:55:10.334Z,98602.00
2023-05-17T13:57:39.678Z,98604.00
2023-05-17T14:00:10.066Z,98614.00
2023-05-17T14:02:39.549Z,98615.00
2023-05-17T14:05:12.368Z,98612.00
2023-05-17T14:07:43.746Z,98620.00
2023-05-17T14:10:14.090Z,98621.00
2023-05-17T14:12:43.526Z,98623.00
2023-05-17T14:15:16.335Z,98623.00
2023-05-17T14:17:45.797Z,98624.00
2023-05-17T14:20:15.787Z,98630.00
2023-05-17T14:22:48.193Z,98632.00
2023-05-17T14:25:17.783Z,98634.00
2023-05-17T14:27:47.893Z,98635.00
2023-05-17T14:30:17.630Z,98642.00
2023-05-17T14:32:50.163Z,98647.00
2023-05-17T14:35:19.767Z,98643.00
2023-05-17T14:37:49.201Z,98652.00
2023-05-17T14:40:23.870Z,98646.00
2023-05-17T14:42:53.231Z,98643.00
2023-05-17T14:45:22.618Z,98648.00
2023-05-17T14:47:52.355Z,98656.00
2023-05-17T14:50:22.034Z,98656.00
2023-05-17T14:52:51.681Z,98659.00
2023-05-17T14:55:25.238Z,98669.00
2023-05-17T14:57:55.832Z,98668.00
2023-05-17T15:00:25.890Z,98671.00
2023-05-17T15:02:55.386Z,98670.00
2023-05-17T15:05:25.367Z,98669.00
2023-05-17T15:07:55.152Z,98666.00
2023-05-17T15:10:24.904Z,98667.00
2023-05-17T15:12:54.269Z,98662.00
2023-05-17T15:15:23.688Z,98658.00
2023-05-17T15:17:53.735Z,98659.00
2023-05-17T15:20:23.434Z,98661.00
2023-05-17T15:22:53.175Z,98658.00
2023-05-17T15:25:25.776Z,98662.00
2023-05-17T15:27:57.992Z,98654.00
2023-05-17T15:30:28.545Z,98655.00
2023-05-17T15:33:00.622Z,98654.00
2023-05-17T15:35:30.273Z,98659.00
2023-05-17T15:38:03.000Z,98657.00
2023-05-17T15:40:34.125Z,98663.00
2023-05-17T15:43:03.582Z,98663.00
2023-05-17T15:45:33.525Z,98659.00
2023-05-17T15:48:03.131Z,98659.00
2023-05-17T15:50:32.606Z,98657.00
2023-05-17T15:53:04.493Z,98656.00
2023-05-17T15:55:33.748Z,98656.00
2023-05-17T15:58:02.990Z,98651.00
2023-05-17T16:00:32.626Z,98655.00
2023-05-17T16:03:02.268Z,98654.00
2023-05-17T16:05:34.854Z,98642.00
2023-05-17T16:08:04.170Z,98648.00
2023-05-17T16:10:33.528Z,98644.00
2023-05-17T16:13:02.975Z,98639.00
2023-05-17T16:15:32.409Z,98646.00
2023-05-17T16:18:02.022Z,98637.00
2023-05-17T16:20:31.416Z,98641.00
2023-05-17T16:23:00.686Z,98643.00
2023-05-17T16:25:30.255Z,98638.00
2023-05-17T16:27:59.757Z,98637.00
2023-05-17T16:30:29.388Z,98634.00
2023-05-17T16:32:59.665Z,98625.00
2023-05-17T16:35:29.870Z,98628.00
2023-05-17T16:37:59.499Z,98630.00
2023-05-17T16:40:29.943Z,98637.00
2023-05-17T16:42:59.481Z,98635.00
2023-05-17T16:45:29.027Z,98627.00
2023-05-17T16:47:58.503Z,98620.00
2023-05-17T16:50:28.352Z,98606.00
2023-05-17T16:52:57.821Z,98615.00
2023-05-17T16:55:27.345Z,98613.00
2023-05-17T16:57:56.770Z,98612.00
2023-05-17T17:00:26.203Z,98607.00
2023-05-17T17:02:55.690Z,98603.00
2023-05-17T17:05:25.122Z,98606.00
2023-05-17T17:07:54.535Z,98606.00
2023-05-17T17:10:23.985Z,98609.00
2023-05-17T17:12:53.425Z,98600.00
2023-05-17T17:15:23.954Z,98597.00
2023-05-17T17:17:53.417Z,98592.00
2023-05-17T17:20:22.912Z,98591.00
2023-05-17T17:22:52.232Z,98594.00
2023-05-17T17:25:22.002Z,98593.00
2023-05-17T17:27:53.112Z,98588.00
2023-05-17T17:30:22.798Z,98583.00
2023-05-17T17:32:52.372Z,98577.00
2023-05-17T17:35:22.304Z,98575.00
2023-05-17T17:37:51.656Z,98564.00
2023-05-17T17:40:21.294Z,98573.00
2023-05-17T17:42:50.663Z,98561.00
2023-05-17T17:45:19.988Z,98556.00
2023-05-17T17:47:49.266Z,98553.00
2023-05-17T17:50:18.783Z,98551.00
2023-05-17T17:52:48.028Z,98550.00
2023-05-17T17:55:17.443Z,98548.00
2023-05-17T17:57:46.794Z,98538.00
2023-05-17T18:00:17.421Z,98541.00
2023-05-17T18:02:46.814Z,98545.00
2023-05-17T18:05:16.137Z,98539.00
2023-05-17T18:07:45.477Z,98537.00
2023-05-17T18:10:14.740Z,98537.00
2023-05-17T18:12:44.015Z,98535.00
2023-05-17T18:15:13.688Z,98529.00
2023-05-17T18:17:43.557Z,98528.00
2023-05-17T18:20:13.034Z,98522.00
2023-05-17T18:22:42.250Z,98519.00
2023-05-17T18:25:12.187Z,98514.00
2023-05-17T18:27:42.478Z,98510.00
2023-05-17T18:30:12.789Z,98503.00
2023-05-17T18:32:42.773Z,98508.00
2023-05-17T18:35:12.731Z,98504.00
2023-05-17T18:37:41.997Z,98507.00
2023-05-17T18:40:12.110Z,98500.00
2023-05-17T18:42:41.375Z,98500.00
2023-05-17T18:45:11.699Z,98501.00
2023-05-17T18:47:41.017Z,98493.00
2023-05-17T18:50:11.136Z,98491.00
2023-05-17T18:52:40.876Z,98487.00
2023-05-17T18:55:10.636Z,98475.00
2023-05-17T18:57:39.948Z,98485.00
2023-05-17T19:00:10.285Z,98478.00
2023-05-17T19:02:39.629Z,98482.00
2023-05-17T19:05:09.622Z,98480.00
2023-05-17T19:07:39.004Z,98476.00
2023-05-17T19:10:09.129Z,98474.00
2023-05-17T19:12:38.489Z,98473.00
2023-05-17T19:15:10.466Z,98466.00
2023-05-17T19:17:39.928Z,98466.00
2023-05-17T19:20:10.471Z,98468.00
2023-05-17T19:22:39.818Z,98475.00
2023-05-17T19:25:09.812Z,98477.00
2023-05-17T19:27:39.079Z,98469.00
2023-05-17T19:30:09.461Z,98470.00
2023-05-17T19:32:39.561Z,98471.00
2023-05-17T19:35:10.058Z,98468.00
2023-05-17T19:37:39.593Z,98464.00
2023-05-17T19:40:09.953Z,98463.00
2023-05-17T19:42:40.676Z,98456.00
2023-05-17T19:45:12.802Z,98452.00
2023-05-17T19:47:43.381Z,98458.00
2023-05-17T19:50:13.531Z,98455.00
2023-05-17T19:52:42.867Z,98455.00
2023-05-17T19:55:12.797Z,98459.00
2023-05-17T19:57:42.166Z,98456.00
2023-05-17T20:00:12.535Z,98454.00
2023-05-17T20:02:42.076Z,98460.00
2023-05-17T20:05:11.748Z,98465.00
2023-05-17T20:07:41.052Z,98461.00
2023-05-17T20:10:11.271Z,98459.00
2023-05-17T20:12:41.032Z,98457.00
2023-05-17T20:15:11.512Z,98453.00
2023-05-17T20:17:40.957Z,98457.00
2023-05-17T20:20:10.970Z,98455.00
2023-05-17T20:22:42.064Z,98464.00
2023-05-17T20:25:12.498Z,98460.00
2023-05-17T20:27:42.044Z,98459.00
2023-05-17T20:30:12.183Z,98450.00
2023-05-17T20:32:41.805Z,98455.00
2023-05-17T20:35:12.002Z,98450.00
2023-05-17T20:37:41.460Z,98450.00
2023-05-17T20:40:11.658Z,98455.00
2023-05-17T20:42:41.378Z,98452.00
2023-05-17T20:45:13.209Z,98451.00
2023-05-17T20:47:43.915Z,98448.00
2023-05-17T20:50:15.040Z,98453.00
2023-05-17T20:52:44.368Z,98455.00
2023-05-17T20:55:13.724Z,98459.00
2023-05-17T20:57:42.998Z,98452.00
2023-05-17T21:00:13.236Z,98447.00
2023-05-17T21:02:42.740Z,98444.00
2023-05-17T21:05:12.277Z,98446.00
2023-05-17T21:07:41.654Z,98455.00
2023-05-17T21:10:11.497Z,98445.00
2023-05-17T21:12:40.877Z,98446.00
2023-05-17T21:15:31.077Z,98447.00
2023-05-17T21:18:00.235Z,98455.00
2023-05-17T21:20:29.876Z,98447.00
2023-05-17T21:22:59.258Z,98455.00
2023-05-17T21:25:29.055Z,98450.00
2023-05-17T21:27:58.885Z,98449.00
2023-05-17T21:30:28.396Z,98453.00
2023-05-17T21:32:58.371Z,98457.00
2023-05-17T21:35:28.886Z,98459.00
2023-05-17T21:38:01.213Z,98453.00
2023-05-17T21:40:30.980Z,98457.00
2023-05-17T21:43:07.845Z,98466.00
2023-05-17T21:45:37.250Z,98461.00
2023-05-17T21:48:06.978Z,98463.00
2023-05-17T21:50:38.167Z,98470.00
2023-05-17T21:53:07.431Z,98477.00
2023-05-17T21:56:00.680Z,98473.00
2023-05-17T21:58:33.161Z,98476.00
2023-05-17T22:01:04.581Z,98483.00
2023-05-17T22:03:34.102Z,98486.00
2023-05-17T22:06:07.574Z,98488.00
2023-05-17T22:08:38.102Z,98484.00
2023-05-17T22:11:09.597Z,98490.00
2023-05-17T22:13:39.564Z,98497.00
2023-05-17T22:16:12.061Z,98496.00
2023-05-17T22:18:41.458Z,98514.00
2023-05-17T22:21:15.412Z,98511.00
2023-05-17T22:23:47.959Z,98510.00
2023-05-17T22:26:22.812Z,98522.00
2023-05-17T22:28:58.554Z,98527.00
2023-05-17T22:31:29.026Z,98524.00
2023-05-17T22:34:00.751Z,98525.00
2023-05-17T22:36:33.173Z,98527.00
2023-05-17T22:39:03.813Z,98535.00
2023-05-17T22:41:34.514Z,98529.00
2023-05-17T22:44:07.777Z,98535.00
2023-05-17T22:46:43.055Z,98537.00
2023-05-17T22:49:14.282Z,98544.00
2023-05-17T22:51:43.548Z,98545.00
2023-05-17T22:54:12.737Z,98550.00
2023-05-17T22:56:42.009Z,98552.00
2023-05-17T22:59:11.632Z,98550.00
2023-05-17T23:01:40.920Z,98552.00
2023-05-17T23:04:10.283Z,98556.00
2023-05-17T23:06:39.602Z,98566.00
2023-05-17T23:09:08.812Z,98566.00
2023-05-17T23:11:38.247Z,98572.00
2023-05-17T23:14:07.994Z,98581.00
2023-05-17T23:16:38.294Z,98589.00
2023-05-17T23:19:07.472Z,98597.00
2023-05-17T23:21:37.060Z,98603.00
2023-05-17T23:24:07.617Z,98598.00
2023-05-17T23:26:37.210Z,98602.00
2023-05-17T23:29:06.417Z,98595.00
2023-05-17T23:31:35.739Z,98596.00
2023-05-17T23:34:05.059Z,98604.00
2023-05-17T23:36:34.425Z,98604.00
2023-05-17T23:39:03.902Z,98605.00
2023-05-17T23:41:33.156Z,98599.00
2023-05-17T23:44:02.556Z,98602.00
2023-05-17T23:46:31.891Z,98603.00
2023-05-17T23:49:05.889Z,98606.00
2023-05-17T23:51:35.816Z,98607.00
2023-05-17T23:54:05.252Z,98606.00
2023-05-17T23:56:34.560Z,98601.00
2023-05-17T23:59:03.868Z,98619.00
